sensor_id;sensor_type;location;lat;lon;timestamp;P1;P4;P2;P0;N10;N4;N25;N1;N05;TS
66725;SPS30;53638;51.062;5.804;2023-09-19T00:01:29;5.03;4.58;3.72;2.53;20.30;20.26;20.07;18.99;15.05;0.74
66725;SPS30;53638;51.062;5.804;2023-09-19T00:04:02;5.22;4.76;3.85;2.61;20.90;20.86;20.66;19.52;15.44;0.74
66725;SPS30;53638;51.062;5.804;2023-09-19T00:06:29;5.25;4.80;3.92;2.70;21.65;21.62;21.42;20.32;16.20;0.71
66725;SPS30;53638;51.062;5.804;2023-09-19T00:09:21;4.98;4.54;3.69;2.52;20.19;20.15;19.96;18.89;14.99;0.72
66725;SPS30;53638;51.062;5.804;2023-09-19T00:11:50;4.41;4.05;3.35;2.37;18.98;18.95;18.79;17.91;14.44;0.70
66725;SPS30;53638;51.062;5.804;2023-09-19T00:14:16;5.26;4.80;3.90;2.66;21.33;21.29;21.09;19.96;15.85;0.73
66725;SPS30;53638;51.062;5.804;2023-09-19T00:16:42;4.61;4.23;3.47;2.42;19.41;19.37;19.20;18.26;14.63;0.71
66725;SPS30;53638;51.062;5.804;2023-09-19T00:19:09;4.29;3.94;3.26;2.31;18.50;18.47;18.32;17.47;14.10;0.70
66725;SPS30;53638;51.062;5.804;2023-09-19T00:21:34;4.71;4.33;3.59;2.55;20.41;20.38;20.21;19.28;15.57;0.70
66725;SPS30;53638;51.062;5.804;2023-09-19T00:24:04;4.35;4.00;3.30;2.34;18.71;18.68;18.53;17.66;14.23;0.70
66725;SPS30;53638;51.062;5.804;2023-09-19T00:26:31;4.31;3.98;3.34;2.44;19.50;19.47;19.33;18.52;15.12;0.67
66725;SPS30;53638;51.062;5.804;2023-09-19T00:28:58;4.54;4.20;3.53;2.59;20.71;20.68;20.53;19.69;16.10;0.67
66725;SPS30;53638;51.062;5.804;2023-09-19T00:31:30;4.71;4.36;3.66;2.67;21.40;21.37;21.21;20.34;16.61;0.66
66725;SPS30;53638;51.062;5.804;2023-09-19T00:33:56;4.60;4.25;3.57;2.60;20.84;20.81;20.66;19.80;16.17;0.68
66725;SPS30;53638;51.062;5.804;2023-09-19T00:36:27;4.20;3.90;3.31;2.46;19.68;19.65;19.52;18.77;15.44;0.66
66725;SPS30;53638;51.062;5.804;2023-09-19T00:38:54;4.48;4.12;3.42;2.43;19.46;19.43;19.27;18.38;14.86;0.69
66725;SPS30;53638;51.062;5.804;2023-09-19T00:41:20;4.49;4.13;3.42;2.43;19.45;19.42;19.26;18.37;14.84;0.68
66725;SPS30;53638;51.062;5.804;2023-09-19T00:43:46;4.82;4.42;3.64;2.55;20.43;20.40;20.22;19.24;15.44;0.70
66725;SPS30;53638;51.062;5.804;2023-09-19T00:46:16;4.35;4.04;3.41;2.52;20.14;20.12;19.98;19.19;15.74;0.67
66725;SPS30;53638;51.062;5.804;2023-09-19T00:48:42;4.31;3.98;3.35;2.44;19.57;19.54;19.40;18.60;15.19;0.67
66725;SPS30;53638;51.062;5.804;2023-09-19T00:51:11;4.49;4.17;3.53;2.61;20.90;20.88;20.73;19.93;16.37;0.66
66725;SPS30;53638;51.062;5.804;2023-09-19T00:53:39;4.50;4.18;3.55;2.64;21.16;21.13;20.99;20.20;16.63;0.65
66725;SPS30;53638;51.062;5.804;2023-09-19T00:56:11;4.65;4.30;3.62;2.65;21.21;21.18;21.03;20.17;16.49;0.66
66725;SPS30;53638;51.062;5.804;2023-09-19T00:58:38;4.42;4.08;3.41;2.46;19.70;19.67;19.52;18.67;15.18;0.67
66725;SPS30;53638;51.062;5.804;2023-09-19T01:01:04;4.43;4.09;3.43;2.50;19.99;19.96;19.81;18.99;15.49;0.66
66725;SPS30;53638;51.062;5.804;2023-09-19T01:03:34;4.19;3.90;3.33;2.50;19.99;19.97;19.84;19.12;15.79;0.63
66725;SPS30;53638;51.062;5.804;2023-09-19T01:06:02;3.93;3.66;3.14;2.36;18.93;18.90;18.78;18.11;14.99;0.63
66725;SPS30;53638;51.062;5.804;2023-09-19T01:08:29;3.83;3.57;3.05;2.30;18.37;18.35;18.23;17.58;14.53;0.64
66725;SPS30;53638;51.062;5.804;2023-09-19T01:10:56;4.65;4.32;3.69;2.77;22.16;22.13;21.99;21.19;17.50;0.64
66725;SPS30;53638;51.062;5.804;2023-09-19T01:13:47;4.29;4.01;3.47;2.66;21.32;21.30;21.17;20.48;17.06;0.64
66725;SPS30;53638;51.062;5.804;2023-09-19T01:22:16;4.59;4.21;3.47;2.43;19.49;19.46;19.29;18.36;14.75;0.71
66725;SPS30;53638;51.062;5.804;2023-09-19T01:30:24;4.48;4.12;3.42;2.43;19.50;19.47;19.31;18.43;14.90;0.69
66725;SPS30;53638;51.062;5.804;2023-09-19T01:32:54;4.67;4.30;3.57;2.54;20.36;20.33;20.16;19.24;15.56;0.69
66725;SPS30;53638;51.062;5.804;2023-09-19T01:35:22;4.52;4.16;3.46;2.47;19.82;19.79;19.63;18.75;15.19;0.70
66725;SPS30;53638;51.062;5.804;2023-09-19T01:37:48;4.68;4.32;3.60;2.60;20.82;20.78;20.62;19.73;16.04;0.69
66725;SPS30;53638;51.062;5.804;2023-09-19T01:40:15;3.90;3.60;3.02;2.20;17.62;17.59;17.46;16.73;13.65;0.68
66725;SPS30;53638;51.062;5.804;2023-09-19T01:42:59;4.01;3.70;3.09;2.23;17.89;17.86;17.72;16.96;13.80;0.68
66725;SPS30;53638;51.062;5.804;2023-09-19T01:48:33;4.59;4.26;3.63;2.71;21.67;21.64;21.50;20.70;17.06;0.67
66725;SPS30;53638;51.062;5.804;2023-09-19T01:51:15;4.68;4.35;3.71;2.77;22.17;22.14;22.00;21.18;17.46;0.66
66725;SPS30;53638;51.062;5.804;2023-09-19T01:56:25;4.69;4.34;3.65;2.67;21.38;21.35;21.20;20.33;16.61;0.67
66725;SPS30;53638;51.062;5.804;2023-09-19T01:59:09;4.85;4.47;3.75;2.72;21.80;21.76;21.60;20.69;16.86;0.67
66725;SPS30;53638;51.062;5.804;2023-09-19T02:01:39;4.21;3.90;3.31;2.46;19.68;19.66;19.52;18.77;15.44;0.67
66725;SPS30;53638;51.062;5.804;2023-09-19T02:04:10;4.29;4.00;3.44;2.60;20.84;20.81;20.68;19.96;16.55;0.66
66725;SPS30;53638;51.062;5.804;2023-09-19T02:06:39;3.95;3.67;3.14;2.36;18.88;18.86;18.73;18.06;14.92;0.66
66725;SPS30;53638;51.062;5.804;2023-09-19T02:09:06;3.99;3.73;3.22;2.47;19.76;19.73;19.62;18.97;15.80;0.64
66725;SPS30;53638;51.062;5.804;2023-09-19T02:11:32;4.08;3.80;3.26;2.47;19.73;19.71;19.59;18.90;15.65;0.65
66725;SPS30;53638;51.062;5.804;2023-09-19T02:13:58;3.90;3.65;3.17;2.45;19.62;19.60;19.49;18.88;15.77;0.62
66725;SPS30;53638;51.062;5.804;2023-09-19T02:16:25;4.13;3.85;3.30;2.49;19.92;19.90;19.77;19.07;15.79;0.63
66725;SPS30;53638;51.062;5.804;2023-09-19T02:18:50;4.47;4.17;3.58;2.71;21.68;21.65;21.52;20.77;17.21;0.62
66725;SPS30;53638;51.062;5.804;2023-09-19T02:21:17;4.49;4.17;3.56;2.66;21.30;21.28;21.14;20.35;16.79;0.64
66725;SPS30;53638;51.062;5.804;2023-09-19T02:23:43;4.44;4.10;3.46;2.53;20.26;20.23;20.08;19.26;15.75;0.65
66725;SPS30;53638;51.062;5.804;2023-09-19T02:26:12;4.60;4.23;3.51;2.49;19.96;19.93;19.76;18.85;15.23;0.68
66725;SPS30;53638;51.062;5.804;2023-09-19T02:28:40;4.52;4.14;3.38;2.34;18.76;18.73;18.56;17.62;14.07;0.71
66725;SPS30;53638;51.062;5.804;2023-09-19T02:31:08;5.09;4.65;3.80;2.63;21.08;21.04;20.85;19.79;15.80;0.71
66725;SPS30;53638;51.062;5.804;2023-09-19T02:33:34;4.43;4.08;3.38;2.40;19.25;19.22;19.07;18.19;14.70;0.69
66725;SPS30;53638;51.062;5.804;2023-09-19T02:36:01;4.51;4.17;3.49;2.53;20.26;20.23;20.08;19.23;15.66;0.68
66725;SPS30;53638;51.062;5.804;2023-09-19T02:38:29;4.01;3.72;3.15;2.33;18.64;18.61;18.48;17.76;14.58;0.67
66725;SPS30;53638;51.062;5.804;2023-09-19T02:40:55;3.94;3.65;3.09;2.28;18.26;18.23;18.11;17.39;14.27;0.66
66725;SPS30;53638;51.062;5.804;2023-09-19T02:43:22;4.61;4.24;3.53;2.53;20.26;20.23;20.07;19.17;15.54;0.68
66725;SPS30;53638;51.062;5.804;2023-09-19T02:45:48;4.51;4.13;3.38;2.34;18.78;18.75;18.58;17.65;14.11;0.71
66725;SPS30;53638;51.062;5.804;2023-09-19T02:48:15;4.59;4.21;3.48;2.45;19.63;19.59;19.43;18.50;14.89;0.70
66725;SPS30;53638;51.062;5.804;2023-09-19T02:50:42;4.25;3.91;3.24;2.30;18.41;18.38;18.23;17.38;14.03;0.71
66725;SPS30;53638;51.062;5.804;2023-09-19T02:53:09;4.25;3.92;3.26;2.33;18.65;18.63;18.48;17.65;14.29;0.71
66725;SPS30;53638;51.062;5.804;2023-09-19T02:55:38;4.66;4.26;3.49;2.43;19.43;19.40;19.23;18.26;14.61;0.72
66725;SPS30;53638;51.062;5.804;2023-09-19T02:58:05;4.62;4.23;3.46;2.41;19.29;19.25;19.08;18.12;14.50;0.70
66725;SPS30;53638;51.062;5.804;2023-09-19T03:00:33;4.33;3.99;3.31;2.37;18.95;18.92;18.77;17.92;14.51;0.69
66725;SPS30;53638;51.062;5.804;2023-09-19T03:03:01;4.75;4.37;3.64;2.61;20.91;20.88;20.71;19.79;16.05;0.68
66725;SPS30;53638;51.062;5.804;2023-09-19T03:05:27;4.20;3.87;3.23;2.33;18.68;18.66;18.51;17.71;14.40;0.68
66725;SPS30;53638;51.062;5.804;2023-09-19T03:07:56;4.86;4.48;3.72;2.65;21.25;21.22;21.05;20.10;16.26;0.69
66725;SPS30;53638;51.062;5.804;2023-09-19T03:10:26;4.27;3.93;3.26;2.32;18.56;18.53;18.37;17.53;14.17;0.70
66725;SPS30;53638;51.062;5.804;2023-09-19T03:12:56;4.20;3.86;3.18;2.24;17.98;17.95;17.80;16.96;13.65;0.70
66725;SPS30;53638;51.062;5.804;2023-09-19T03:15:22;4.34;3.98;3.28;2.30;18.41;18.38;18.22;17.34;13.93;0.70
66725;SPS30;53638;51.062;5.804;2023-09-19T03:17:50;4.76;4.35;3.56;2.46;19.69;19.65;19.47;18.47;14.74;0.71
66725;SPS30;53638;51.062;5.804;2023-09-19T03:20:21;4.30;3.93;3.21;2.21;17.71;17.68;17.52;16.62;13.24;0.71
66725;SPS30;53638;51.062;5.804;2023-09-19T03:22:48;4.27;3.89;3.15;2.14;17.16;17.13;16.96;16.04;12.70;0.71
66725;SPS30;53638;51.062;5.804;2023-09-19T03:25:15;4.72;4.31;3.50;2.39;19.14;19.10;18.92;17.91;14.21;0.72
66725;SPS30;53638;51.062;5.804;2023-09-19T03:27:43;5.06;4.62;3.77;2.59;20.75;20.71;20.52;19.45;15.49;0.72
66725;SPS30;53638;51.062;5.804;2023-09-19T03:30:09;4.50;4.11;3.35;2.30;18.47;18.43;18.26;17.31;13.79;0.71
66725;SPS30;53638;51.062;5.804;2023-09-19T03:32:44;4.65;4.23;3.41;2.29;18.34;18.30;18.12;17.09;13.45;0.74
66725;SPS30;53638;51.062;5.804;2023-09-19T03:35:11;4.55;4.14;3.33;2.23;17.85;17.81;17.63;16.62;13.06;0.74
66725;SPS30;53638;51.062;5.804;2023-09-19T03:37:40;4.70;4.28;3.46;2.34;18.76;18.73;18.54;17.52;13.85;0.74
66725;SPS30;53638;51.062;5.804;2023-09-19T03:40:07;4.55;4.15;3.37;2.30;18.40;18.36;18.19;17.21;13.64;0.73
66725;SPS30;53638;51.062;5.804;2023-09-19T03:42:38;5.14;4.68;3.78;2.56;20.48;20.44;20.24;19.12;15.09;0.73
66725;SPS30;53638;51.062;5.804;2023-09-19T03:45:05;5.21;4.74;3.82;2.56;20.52;20.48;20.27;19.12;15.04;0.74
66725;SPS30;53638;51.062;5.804;2023-09-19T03:47:35;5.11;4.66;3.79;2.59;20.72;20.68;20.48;19.39;15.39;0.73
66725;SPS30;53638;51.062;5.804;2023-09-19T03:50:02;4.61;4.22;3.45;2.39;19.12;19.08;18.91;17.95;14.33;0.72
66725;SPS30;53638;51.062;5.804;2023-09-19T03:52:29;4.60;4.18;3.36;2.23;17.90;17.87;17.68;16.65;13.05;0.75
66725;SPS30;53638;51.062;5.804;2023-09-19T03:54:55;4.51;4.11;3.33;2.26;18.15;18.12;17.94;16.96;13.43;0.72
66725;SPS30;53638;51.062;5.804;2023-09-19T03:57:21;4.87;4.43;3.57;2.40;19.24;19.21;19.01;17.94;14.13;0.74
66725;SPS30;53638;51.062;5.804;2023-09-19T03:59:47;5.91;5.35;4.26;2.78;22.29;22.24;22.00;20.63;16.03;0.76
66725;SPS30;53638;51.062;5.804;2023-09-19T04:02:13;4.84;4.39;3.52;2.34;18.73;18.69;18.49;17.40;13.63;0.74
66725;SPS30;53638;51.062;5.804;2023-09-19T04:04:49;4.67;4.26;3.45;2.35;18.85;18.81;18.63;17.63;13.97;0.73
66725;SPS30;53638;51.062;5.804;2023-09-19T04:07:15;4.94;4.50;3.63;2.45;19.64;19.60;19.41;18.33;14.46;0.75
66725;SPS30;53638;51.062;5.804;2023-09-19T04:09:41;4.85;4.44;3.62;2.50;20.01;19.98;19.79;18.77;14.96;0.73
66725;SPS30;53638;51.062;5.804;2023-09-19T04:12:07;5.58;5.08;4.12;2.79;22.34;22.29;22.08;20.86;16.50;0.74
66725;SPS30;53638;51.062;5.804;2023-09-19T04:14:34;5.50;5.00;4.04;2.72;21.80;21.76;21.54;20.34;16.04;0.75
66725;SPS30;53638;51.062;5.804;2023-09-19T04:17:00;5.07;4.64;3.79;2.61;20.95;20.91;20.72;19.66;15.68;0.72
66725;SPS30;53638;51.062;5.804;2023-09-19T04:19:26;5.08;4.65;3.81;2.65;21.24;21.20;21.02;19.96;15.98;0.71
66725;SPS30;53638;51.062;5.804;2023-09-19T04:21:52;5.33;4.87;3.97;2.73;21.91;21.87;21.66;20.54;16.36;0.73
66725;SPS30;53638;51.062;5.804;2023-09-19T04:24:18;5.97;5.39;4.25;2.73;21.89;21.84;21.58;20.17;15.53;0.78
66725;SPS30;53638;51.062;5.804;2023-09-19T04:26:45;5.55;5.00;3.94;2.51;20.12;20.07;19.84;18.51;14.20;0.79
66725;SPS30;53638;51.062;5.804;2023-09-19T04:29:11;5.41;4.86;3.79;2.36;18.98;18.93;18.69;17.36;13.16;0.80
66725;SPS30;53638;51.062;5.804;2023-09-19T04:31:39;5.60;5.06;4.02;2.62;20.97;20.93;20.70;19.40;15.04;0.76
66725;SPS30;53638;51.062;5.804;2023-09-19T04:34:06;5.77;5.24;4.20;2.79;22.36;22.32;22.09;20.79;16.28;0.76
66725;SPS30;53638;51.062;5.804;2023-09-19T04:36:34;4.77;4.33;3.47;2.31;18.50;18.46;18.27;17.20;13.47;0.75
66725;SPS30;53638;51.062;5.804;2023-09-19T04:39:02;4.70;4.30;3.52;2.44;19.58;19.54;19.37;18.39;14.70;0.72
66725;SPS30;53638;51.062;5.804;2023-09-19T04:41:36;4.85;4.43;3.61;2.48;19.91;19.87;19.69;18.66;14.86;0.74
66725;SPS30;53638;51.062;5.804;2023-09-19T04:44:06;5.41;4.87;3.82;2.41;19.35;19.31;19.07;17.76;13.56;0.79
66725;SPS30;53638;51.062;5.804;2023-09-19T04:46:33;6.14;5.51;4.27;2.64;21.17;21.12;20.84;19.31;14.56;0.81
66725;SPS30;53638;51.062;5.804;2023-09-19T04:48:59;5.69;5.12;4.00;2.51;20.14;20.09;19.84;18.45;14.04;0.79
66725;SPS30;53638;51.062;5.804;2023-09-19T04:51:26;5.89;5.33;4.24;2.77;22.19;22.14;21.89;20.53;15.94;0.76
66725;SPS30;53638;51.062;5.804;2023-09-19T04:53:59;5.25;4.77;3.82;2.53;20.25;20.21;20.00;18.81;14.71;0.75
66725;SPS30;53638;51.062;5.804;2023-09-19T04:56:25;5.89;5.33;4.25;2.78;22.26;22.21;21.97;20.61;16.02;0.75
66725;SPS30;53638;51.062;5.804;2023-09-19T04:58:51;4.84;4.43;3.63;2.52;20.16;20.13;19.95;18.94;15.14;0.70
66725;SPS30;53638;51.062;5.804;2023-09-19T05:01:17;4.16;3.82;3.16;2.23;17.85;17.82;17.68;16.84;13.57;0.69
66725;SPS30;53638;51.062;5.804;2023-09-19T05:03:43;4.49;4.12;3.40;2.39;19.12;19.08;18.92;18.01;14.48;0.69
66725;SPS30;53638;51.062;5.804;2023-09-19T05:06:10;4.87;4.43;3.55;2.37;18.97;18.93;18.74;17.65;13.84;0.74
66725;SPS30;53638;51.062;5.804;2023-09-19T05:08:36;5.39;4.86;3.82;2.43;19.52;19.47;19.24;17.95;13.77;0.77
66725;SPS30;53638;51.062;5.804;2023-09-19T05:11:02;5.25;4.74;3.74;2.39;19.18;19.13;18.91;17.66;13.58;0.78
66725;SPS30;53638;51.062;5.804;2023-09-19T05:13:28;4.80;4.35;3.48;2.29;18.40;18.36;18.17;17.08;13.33;0.75
66725;SPS30;53638;51.062;5.804;2023-09-19T05:15:53;4.94;4.51;3.68;2.53;20.24;20.21;20.02;18.98;15.10;0.72
66725;SPS30;53638;51.062;5.804;2023-09-19T05:18:19;5.09;4.64;3.75;2.54;20.38;20.34;20.15;19.04;15.06;0.75
66725;SPS30;53638;51.062;5.804;2023-09-19T05:20:47;4.98;4.53;3.65;2.45;19.68;19.64;19.44;18.34;14.45;0.75
66725;SPS30;53638;51.062;5.804;2023-09-19T05:23:15;4.45;4.05;3.28;2.21;17.74;17.70;17.53;16.56;13.08;0.75
66725;SPS30;53638;51.062;5.804;2023-09-19T05:25:41;4.89;4.43;3.53;2.32;18.60;18.56;18.36;17.24;13.43;0.76
66725;SPS30;53638;51.062;5.804;2023-09-19T05:28:09;5.12;4.61;3.61;2.28;18.27;18.23;18.01;16.76;12.79;0.78
66725;SPS30;53638;51.062;5.804;2023-09-19T05:30:37;4.70;4.25;3.38;2.20;17.67;17.63;17.43;16.35;12.69;0.75
66725;SPS30;53638;51.062;5.804;2023-09-19T05:33:04;4.59;4.18;3.38;2.28;18.26;18.23;18.05;17.04;13.45;0.74
66725;SPS30;53638;51.062;5.804;2023-09-19T05:35:31;4.72;4.31;3.51;2.41;19.30;19.27;19.09;18.09;14.38;0.73
66725;SPS30;53638;51.062;5.804;2023-09-19T05:37:57;4.47;4.08;3.32;2.27;18.19;18.15;17.98;17.03;13.52;0.73
66725;SPS30;53638;51.062;5.804;2023-09-19T05:40:23;5.15;4.67;3.74;2.47;19.82;19.78;19.58;18.41;14.39;0.75
66725;SPS30;53638;51.062;5.804;2023-09-19T05:42:50;4.53;4.11;3.28;2.16;17.31;17.27;17.09;16.06;12.52;0.75
66725;SPS30;53638;51.062;5.804;2023-09-19T05:45:17;4.73;4.30;3.45;2.29;18.33;18.29;18.10;17.04;13.34;0.75
66725;SPS30;53638;51.062;5.804;2023-09-19T05:47:48;4.70;4.29;3.48;2.37;18.97;18.94;18.76;17.74;14.06;0.73
66725;SPS30;53638;51.062;5.804;2023-09-19T05:50:15;4.63;4.22;3.41;2.30;18.46;18.43;18.25;17.24;13.61;0.73
66725;SPS30;53638;51.062;5.804;2023-09-19T05:52:42;4.38;3.99;3.23;2.18;17.49;17.45;17.28;16.32;12.89;0.73
66725;SPS30;53638;51.062;5.804;2023-09-19T05:55:10;4.66;4.25;3.45;2.35;18.84;18.81;18.63;17.63;13.98;0.72
66725;SPS30;53638;51.062;5.804;2023-09-19T05:57:37;4.31;3.91;3.13;2.07;16.60;16.57;16.39;15.42;12.06;0.74
66725;SPS30;53638;51.062;5.804;2023-09-19T06:00:05;4.86;4.40;3.52;2.31;18.55;18.51;18.31;17.20;13.41;0.76
66725;SPS30;53638;51.062;5.804;2023-09-19T06:02:37;5.37;4.85;3.83;2.47;19.80;19.76;19.53;18.27;14.10;0.77
66725;SPS30;53638;51.062;5.804;2023-09-19T06:05:04;5.06;4.55;3.55;2.22;17.85;17.81;17.59;16.35;12.42;0.78
66725;SPS30;53638;51.062;5.804;2023-09-19T06:07:32;5.30;4.79;3.80;2.47;19.79;19.75;19.53;18.30;14.18;0.76
66725;SPS30;53638;51.062;5.804;2023-09-19T06:10:03;4.70;4.26;3.39;2.21;17.72;17.69;17.49;16.40;12.74;0.74
66725;SPS30;53638;51.062;5.804;2023-09-19T06:12:31;4.66;4.24;3.42;2.30;18.44;18.40;18.22;17.19;13.55;0.72
66725;SPS30;53638;51.062;5.804;2023-09-19T06:15:00;4.36;3.97;3.20;2.15;17.24;17.21;17.04;16.08;12.66;0.73
66725;SPS30;53638;51.062;5.804;2023-09-19T06:17:26;4.64;4.22;3.39;2.26;18.16;18.12;17.94;16.90;13.28;0.74
66725;SPS30;53638;51.062;5.804;2023-09-19T06:19:53;4.43;4.06;3.32;2.29;18.38;18.35;18.18;17.26;13.78;0.73
66725;SPS30;53638;51.062;5.804;2023-09-19T06:22:18;4.50;4.11;3.34;2.29;18.34;18.31;18.14;17.18;13.65;0.73
66725;SPS30;53638;51.062;5.804;2023-09-19T06:24:45;4.70;4.26;3.39;2.22;17.84;17.80;17.61;16.53;12.87;0.75
66725;SPS30;53638;51.062;5.804;2023-09-19T06:27:12;5.01;4.51;3.54;2.24;18.01;17.97;17.75;16.54;12.66;0.77
66725;SPS30;53638;51.062;5.804;2023-09-19T06:29:38;4.92;4.43;3.49;2.22;17.85;17.81;17.60;16.42;12.60;0.77
66725;SPS30;53638;51.062;5.804;2023-09-19T06:32:08;5.22;4.70;3.69;2.34;18.78;18.73;18.51;17.25;13.20;0.77
66725;SPS30;53638;51.062;5.804;2023-09-19T06:34:34;5.70;5.10;3.95;2.42;19.40;19.35;19.09;17.66;13.25;0.81
66725;SPS30;53638;51.062;5.804;2023-09-19T06:37:00;5.11;4.56;3.50;2.09;16.79;16.75;16.51;15.19;11.24;0.82
66725;SPS30;53638;51.062;5.804;2023-09-19T06:39:26;4.71;4.22;3.26;2.00;16.06;16.02;15.81;14.63;10.99;0.80
66725;SPS30;53638;51.062;5.804;2023-09-19T06:41:52;4.78;4.30;3.35;2.09;16.79;16.75;16.54;15.36;11.65;0.78
66725;SPS30;53638;51.062;5.804;2023-09-19T06:44:19;5.16;4.64;3.62;2.26;18.16;18.12;17.89;16.62;12.62;0.79
66725;SPS30;53638;51.062;5.804;2023-09-19T06:46:47;4.52;4.07;3.19;2.00;16.08;16.04;15.84;14.74;11.23;0.78
66725;SPS30;53638;51.062;5.804;2023-09-19T06:49:17;5.02;4.54;3.62;2.36;18.95;18.91;18.71;17.55;13.64;0.75
66725;SPS30;53638;51.062;5.804;2023-09-19T06:51:43;4.58;4.17;3.36;2.26;18.11;18.07;17.89;16.88;13.30;0.73
66725;SPS30;53638;51.062;5.804;2023-09-19T06:54:10;4.75;4.31;3.45;2.29;18.34;18.31;18.11;17.04;13.33;0.75
66725;SPS30;53638;51.062;5.804;2023-09-19T06:56:36;4.75;4.31;3.47;2.31;18.54;18.50;18.31;17.25;13.54;0.75
66725;SPS30;53638;51.062;5.804;2023-09-19T06:59:02;4.06;3.69;2.97;1.99;15.92;15.88;15.72;14.82;11.65;0.74
66725;SPS30;53638;51.062;5.804;2023-09-19T07:01:31;4.43;4.03;3.26;2.20;17.67;17.63;17.46;16.50;13.04;0.74
66725;SPS30;53638;51.062;5.804;2023-09-19T07:03:57;4.29;3.91;3.16;2.13;17.06;17.03;16.86;15.92;12.56;0.74
66725;SPS30;53638;51.062;5.804;2023-09-19T07:06:23;4.56;4.15;3.35;2.25;18.01;17.98;17.79;16.79;13.22;0.74
66725;SPS30;53638;51.062;5.804;2023-09-19T07:08:49;5.28;4.77;3.77;2.43;19.47;19.43;19.21;17.96;13.85;0.77
66725;SPS30;53638;51.062;5.804;2023-09-19T07:11:15;4.88;4.43;3.55;2.36;18.91;18.87;18.68;17.58;13.77;0.75
66725;SPS30;53638;51.062;5.804;2023-09-19T07:13:42;4.89;4.43;3.52;2.29;18.35;18.31;18.11;16.97;13.16;0.77
66725;SPS30;53638;51.062;5.804;2023-09-19T07:16:09;4.85;4.38;3.47;2.25;18.03;17.99;17.79;16.65;12.88;0.77
66725;SPS30;53638;51.062;5.804;2023-09-19T07:18:53;5.16;4.65;3.65;2.32;18.58;18.54;18.32;17.08;13.07;0.79
66725;SPS30;53638;51.062;5.804;2023-09-19T07:21:22;4.99;4.50;3.54;2.26;18.15;18.11;17.89;16.70;12.83;0.78
66725;SPS30;53638;51.062;5.804;2023-09-19T07:23:48;5.09;4.58;3.58;2.25;18.05;18.00;17.78;16.54;12.59;0.80
66725;SPS30;53638;51.062;5.804;2023-09-19T07:26:15;4.50;4.06;3.22;2.08;16.66;16.62;16.43;15.37;11.87;0.78
66725;SPS30;53638;51.062;5.804;2023-09-19T07:28:41;5.02;4.52;3.56;2.26;18.13;18.09;17.87;16.67;12.77;0.79
66725;SPS30;53638;51.062;5.804;2023-09-19T07:31:07;5.39;4.86;3.81;2.40;19.26;19.22;18.99;17.68;13.49;0.79
66725;SPS30;53638;51.062;5.804;2023-09-19T07:33:35;5.03;4.52;3.51;2.18;17.49;17.45;17.23;15.98;12.08;0.79
66725;SPS30;53638;51.062;5.804;2023-09-19T07:36:02;5.11;4.61;3.62;2.31;18.49;18.45;18.23;17.00;13.03;0.77
66725;SPS30;53638;51.062;5.804;2023-09-19T07:38:28;4.98;4.50;3.55;2.28;18.25;18.21;18.00;16.81;12.94;0.76
66725;SPS30;53638;51.062;5.804;2023-09-19T07:40:59;4.74;4.31;3.46;2.31;18.54;18.51;18.32;17.26;13.56;0.75
66725;SPS30;53638;51.062;5.804;2023-09-19T07:43:26;3.74;3.41;2.78;1.91;15.32;15.29;15.15;14.36;11.43;0.72
66725;SPS30;53638;51.062;5.804;2023-09-19T07:45:52;4.62;4.21;3.40;2.30;18.44;18.40;18.22;17.22;13.60;0.74
66725;SPS30;53638;51.062;5.804;2023-09-19T07:48:18;4.56;4.13;3.28;2.14;17.14;17.11;16.92;15.86;12.31;0.76
66725;SPS30;53638;51.062;5.804;2023-09-19T07:50:44;4.84;4.38;3.50;2.30;18.44;18.40;18.20;17.10;13.33;0.74
66725;SPS30;53638;51.062;5.804;2023-09-19T07:53:10;4.22;3.85;3.12;2.12;16.98;16.95;16.79;15.88;12.57;0.73
66725;SPS30;53638;51.062;5.804;2023-09-19T07:55:39;4.81;4.37;3.52;2.36;18.91;18.88;18.68;17.62;13.86;0.74
66725;SPS30;53638;51.062;5.804;2023-09-19T07:58:06;4.43;4.01;3.20;2.11;16.88;16.85;16.67;15.65;12.20;0.74
66725;SPS30;53638;51.062;5.804;2023-09-19T08:00:33;4.42;4.00;3.17;2.05;16.47;16.43;16.25;15.22;11.77;0.75
66725;SPS30;53638;51.062;5.804;2023-09-19T08:03:00;5.06;4.58;3.62;2.34;18.80;18.75;18.54;17.36;13.42;0.76
66725;SPS30;53638;51.062;5.804;2023-09-19T08:05:26;4.53;4.10;3.26;2.13;17.09;17.05;16.87;15.82;12.29;0.76
66725;SPS30;53638;51.062;5.804;2023-09-19T08:07:52;4.86;4.39;3.49;2.28;18.27;18.23;18.03;16.90;13.12;0.76
66725;SPS30;53638;51.062;5.804;2023-09-19T08:10:19;4.32;3.91;3.11;2.03;16.31;16.28;16.10;15.11;11.74;0.77
66725;SPS30;53638;51.062;5.804;2023-09-19T08:12:47;4.68;4.26;3.44;2.32;18.61;18.58;18.40;17.37;13.72;0.75
66725;SPS30;53638;51.062;5.804;2023-09-19T08:15:15;5.05;4.62;3.78;2.61;20.94;20.91;20.72;19.66;15.70;0.72
66725;SPS30;53638;51.062;5.804;2023-09-19T08:17:43;4.56;4.20;3.49;2.49;19.97;19.94;19.78;18.89;15.29;0.69
66725;SPS30;53638;51.062;5.804;2023-09-19T08:20:09;4.66;4.26;3.50;2.43;19.49;19.46;19.29;18.33;14.67;0.70
66725;SPS30;53638;51.062;5.804;2023-09-19T08:22:44;4.76;4.33;3.51;2.37;19.02;18.98;18.79;17.76;14.04;0.71
66725;SPS30;53638;51.062;5.804;2023-09-19T08:25:14;4.30;3.93;3.20;2.20;17.63;17.60;17.44;16.52;13.15;0.72
66725;SPS30;53638;51.062;5.804;2023-09-19T08:27:44;4.24;3.88;3.19;2.22;17.80;17.77;17.62;16.74;13.42;0.72
66725;SPS30;53638;51.062;5.804;2023-09-19T08:30:15;3.87;3.53;2.87;1.96;15.71;15.68;15.53;14.70;11.67;0.73
66725;SPS30;53638;51.062;5.804;2023-09-19T08:32:45;3.94;3.59;2.90;1.95;15.63;15.60;15.45;14.58;11.49;0.75
66725;SPS30;53638;51.062;5.804;2023-09-19T08:35:11;3.84;3.51;2.85;1.94;15.55;15.52;15.37;14.55;11.54;0.73
66725;SPS30;53638;51.062;5.804;2023-09-19T08:37:38;3.81;3.50;2.88;2.03;16.23;16.20;16.06;15.29;12.29;0.71
66725;SPS30;53638;51.062;5.804;2023-09-19T08:40:04;4.03;3.70;3.06;2.16;17.29;17.26;17.11;16.31;13.13;0.71
66725;SPS30;53638;51.062;5.804;2023-09-19T08:42:31;3.52;3.24;2.70;1.93;15.42;15.40;15.28;14.59;11.81;0.70
66725;SPS30;53638;51.062;5.804;2023-09-19T08:45:14;3.95;3.64;3.03;2.16;17.34;17.31;17.17;16.40;13.29;0.70
66725;SPS30;53638;51.062;5.804;2023-09-19T08:47:45;4.22;3.87;3.19;2.25;18.01;17.98;17.83;16.98;13.66;0.69
66725;SPS30;53638;51.062;5.804;2023-09-19T08:50:24;4.14;3.77;3.06;2.09;16.73;16.70;16.54;15.65;12.41;0.73
66725;SPS30;53638;51.062;5.804;2023-09-19T08:52:55;4.30;3.90;3.14;2.09;16.77;16.74;16.57;15.61;12.25;0.74
66725;SPS30;53638;51.062;5.804;2023-09-19T08:55:27;4.14;3.79;3.09;2.12;17.00;16.97;16.81;15.93;12.68;0.71
66725;SPS30;53638;51.062;5.804;2023-09-19T08:57:59;4.86;4.43;3.59;2.43;19.46;19.42;19.23;18.18;14.37;0.72
66725;SPS30;53638;51.062;5.804;2023-09-19T09:00:28;4.38;3.98;3.20;2.14;17.14;17.10;16.93;15.95;12.53;0.73
66725;SPS30;53638;51.062;5.804;2023-09-19T09:02:57;4.17;3.81;3.11;2.14;17.12;17.09;16.93;16.05;12.78;0.71
66725;SPS30;53638;51.062;5.804;2023-09-19T09:05:24;4.79;4.36;3.51;2.35;18.86;18.83;18.64;17.57;13.83;0.72
66725;SPS30;53638;51.062;5.804;2023-09-19T09:07:53;4.36;3.95;3.15;2.08;16.65;16.62;16.44;15.45;12.05;0.74
66725;SPS30;53638;51.062;5.804;2023-09-19T09:10:22;3.99;3.62;2.90;1.91;15.34;15.31;15.15;14.24;11.13;0.75
66725;SPS30;53638;51.062;5.804;2023-09-19T09:12:51;3.99;3.63;2.92;1.95;15.64;15.61;15.45;14.56;11.44;0.74
66725;SPS30;53638;51.062;5.804;2023-09-19T09:15:20;4.59;4.19;3.40;2.31;18.49;18.45;18.28;17.28;13.69;0.73
66725;SPS30;53638;51.062;5.804;2023-09-19T09:17:49;4.23;3.85;3.11;2.10;16.79;16.76;16.59;15.67;12.36;0.73
66725;SPS30;53638;51.062;5.804;2023-09-19T09:20:16;4.09;3.73;3.03;2.06;16.51;16.48;16.33;15.45;12.25;0.71
66725;SPS30;53638;51.062;5.804;2023-09-19T09:22:51;4.53;4.14;3.36;2.30;18.43;18.39;18.22;17.25;13.70;0.72
66725;SPS30;53638;51.062;5.804;2023-09-19T09:25:19;4.02;3.66;2.96;1.99;15.97;15.94;15.78;14.90;11.76;0.73
66725;SPS30;53638;51.062;5.804;2023-09-19T09:27:58;4.65;4.22;3.37;2.22;17.83;17.79;17.60;16.55;12.92;0.75
66725;SPS30;53638;51.062;5.804;2023-09-19T09:30:33;4.59;4.17;3.36;2.25;18.05;18.01;17.83;16.81;13.23;0.73
66725;SPS30;53638;51.062;5.804;2023-09-19T09:33:08;4.70;4.26;3.40;2.24;17.92;17.89;17.69;16.62;12.96;0.75